createdAt,value
2023-04-25T00:00:46.157Z,26.84
2023-04-25T00:01:46.144Z,26.83
2023-04-25T00:02:46.265Z,26.79
2023-04-25T00:03:46.334Z,26.83
2023-04-25T00:04:46.472Z,26.86
2023-04-25T00:05:46.195Z,26.86
2023-04-25T00:06:46.181Z,26.79
2023-04-25T00:07:46.211Z,26.82
2023-04-25T00:08:46.200Z,26.82
2023-04-25T00:09:46.222Z,26.83
2023-04-25T00:10:46.237Z,26.78
2023-04-25T00:11:46.242Z,26.82
2023-04-25T00:12:46.251Z,26.83
2023-04-25T00:13:46.390Z,26.80
2023-04-25T00:14:46.265Z,26.83
2023-04-25T00:15:46.324Z,26.83
2023-04-25T00:16:46.280Z,26.80
2023-04-25T00:17:46.314Z,26.83
2023-04-25T00:18:46.304Z,26.87
2023-04-25T00:19:46.323Z,26.86
2023-04-25T00:20:46.321Z,26.83
2023-04-25T00:21:46.344Z,26.83
2023-04-25T00:22:46.356Z,26.83
2023-04-25T00:23:46.345Z,26.84
2023-04-25T00:24:46.354Z,26.83
2023-04-25T00:25:46.367Z,26.81
2023-04-25T00:26:46.381Z,26.87
2023-04-25T00:27:46.397Z,26.83
2023-04-25T00:28:46.420Z,26.83
2023-04-25T00:29:46.420Z,26.84
2023-04-25T00:30:46.435Z,26.87
2023-04-25T00:31:46.480Z,26.89
2023-04-25T00:32:46.484Z,26.85
2023-04-25T00:33:46.450Z,26.81
2023-04-25T00:34:46.449Z,26.86
2023-04-25T00:35:46.463Z,26.84
2023-04-25T00:36:46.467Z,26.83
2023-04-25T00:37:46.463Z,26.78
2023-04-25T00:38:46.467Z,26.84
2023-04-25T00:39:46.476Z,26.86
2023-04-25T00:40:46.472Z,26.83
2023-04-25T00:41:46.485Z,26.83
2023-04-25T00:42:46.485Z,26.86
2023-04-25T00:43:46.513Z,26.83
2023-04-25T00:44:46.517Z,26.86
2023-04-25T00:45:46.518Z,26.83
2023-04-25T00:46:46.541Z,26.84
2023-04-25T00:47:46.674Z,26.87
2023-04-25T00:48:46.579Z,26.89
2023-04-25T00:49:46.553Z,26.83
2023-04-25T00:50:46.554Z,26.86
2023-04-25T00:51:46.559Z,26.83
2023-04-25T00:52:46.571Z,26.84
2023-04-25T00:53:46.571Z,26.84
2023-04-25T00:54:46.572Z,26.85
2023-04-25T00:55:46.566Z,26.90
2023-04-25T00:56:46.580Z,26.84
2023-04-25T00:57:46.573Z,26.84
2023-04-25T00:58:46.598Z,26.84
2023-04-25T00:59:46.580Z,26.84
2023-04-25T01:00:46.630Z,26.89
2023-04-25T01:01:46.702Z,26.87
2023-04-25T01:02:46.738Z,26.87
2023-04-25T01:03:46.694Z,26.87
2023-04-25T01:04:46.608Z,26.81
2023-04-25T01:05:46.617Z,26.90
2023-04-25T01:06:46.630Z,26.88
2023-04-25T01:07:46.652Z,26.82
2023-04-25T01:08:46.665Z,26.92
2023-04-25T01:09:46.661Z,26.87
2023-04-25T01:10:46.694Z,26.90
2023-04-25T01:11:46.709Z,26.84
2023-04-25T01:12:46.699Z,26.88
2023-04-25T01:13:46.696Z,26.90
2023-04-25T01:14:46.706Z,26.91
2023-04-25T01:15:46.712Z,26.87
2023-04-25T01:16:46.738Z,26.90
2023-04-25T01:17:46.779Z,26.87
2023-04-25T01:18:46.740Z,26.85
2023-04-25T01:19:46.736Z,26.90
2023-04-25T01:20:46.782Z,26.92
2023-04-25T01:21:46.816Z,26.84
2023-04-25T01:22:46.837Z,26.88
2023-04-25T01:23:46.861Z,26.85
2023-04-25T01:24:46.885Z,26.85
2023-04-25T01:25:46.917Z,26.90
2023-04-25T01:26:46.951Z,26.87
2023-04-25T01:27:46.961Z,26.87
2023-04-25T01:28:46.990Z,26.87
2023-04-25T01:29:47.025Z,26.85
2023-04-25T01:30:47.040Z,26.93
2023-04-25T01:31:47.086Z,26.84
2023-04-25T01:32:47.164Z,26.88
2023-04-25T01:33:47.096Z,26.87
2023-04-25T01:34:47.125Z,26.85
2023-04-25T01:35:47.149Z,26.82
2023-04-25T01:36:47.177Z,26.85
2023-04-25T01:37:47.219Z,26.85
2023-04-25T01:38:47.203Z,26.84
2023-04-25T01:39:47.225Z,26.82
2023-04-25T01:40:47.237Z,26.85
2023-04-25T01:41:47.261Z,26.84
2023-04-25T01:42:47.297Z,26.88
2023-04-25T01:43:47.327Z,26.88
2023-04-25T01:44:47.321Z,26.82
2023-04-25T01:45:47.368Z,26.81
2023-04-25T01:46:47.331Z,26.85
2023-04-25T01:47:47.433Z,26.88
2023-04-25T01:48:47.378Z,26.82
2023-04-25T01:49:47.366Z,26.79
2023-04-25T01:50:47.403Z,26.85
2023-04-25T01:51:47.405Z,26.88
2023-04-25T01:52:47.411Z,26.87
2023-04-25T01:53:47.447Z,26.82
2023-04-25T01:54:47.433Z,26.82
2023-04-25T01:55:47.453Z,26.85
2023-04-25T01:56:47.467Z,26.87
2023-04-25T01:57:47.458Z,26.88
2023-04-25T01:58:47.509Z,26.84
2023-04-25T01:59:47.482Z,26.87
2023-04-25T02:00:47.497Z,26.87
2023-04-25T02:01:47.551Z,26.85
2023-04-25T02:02:47.663Z,26.83
2023-04-25T02:03:47.762Z,26.90
2023-04-25T02:04:47.602Z,26.84
2023-04-25T02:05:47.566Z,26.90
2023-04-25T02:06:47.601Z,26.83
2023-04-25T02:07:47.618Z,26.85
2023-04-25T02:08:47.664Z,26.85
2023-04-25T02:09:47.633Z,26.83
2023-04-25T02:10:47.651Z,26.86
2023-04-25T02:11:47.696Z,26.83
2023-04-25T02:12:47.699Z,26.90
2023-04-25T02:13:47.686Z,26.83
2023-04-25T02:14:47.693Z,26.83
2023-04-25T02:15:47.766Z,26.87
2023-04-25T02:16:47.790Z,26.83
2023-04-25T02:17:47.755Z,26.88
2023-04-25T02:18:47.736Z,26.85
2023-04-25T02:19:47.753Z,26.85
2023-04-25T02:20:47.761Z,26.86
2023-04-25T02:21:47.780Z,26.85
2023-04-25T02:22:47.801Z,26.89
2023-04-25T02:23:47.808Z,26.88
2023-04-25T02:24:47.834Z,26.87
2023-04-25T02:25:47.843Z,26.82
2023-04-25T02:26:47.856Z,26.85
2023-04-25T02:27:47.860Z,26.83
2023-04-25T02:28:47.875Z,26.85
2023-04-25T02:29:47.885Z,26.83
2023-04-25T02:30:47.889Z,26.83
2023-04-25T02:31:48.027Z,26.85
2023-04-25T02:32:47.998Z,26.82
2023-04-25T02:33:48.143Z,26.90
2023-04-25T02:34:47.923Z,26.80
2023-04-25T02:35:48.116Z,26.89
2023-04-25T02:36:47.954Z,26.82
2023-04-25T02:37:47.947Z,26.84
2023-04-25T02:38:47.964Z,26.83
2023-04-25T02:39:47.974Z,26.83
2023-04-25T02:40:47.994Z,26.88
2023-04-25T02:41:47.985Z,26.83
2023-04-25T02:42:48.007Z,26.89
2023-04-25T02:43:48.174Z,26.77
2023-04-25T02:44:48.025Z,26.83
2023-04-25T02:45:48.037Z,26.82
2023-04-25T02:46:48.071Z,26.85
2023-04-25T02:47:48.083Z,26.87
2023-04-25T02:48:48.061Z,26.82
2023-04-25T02:49:48.080Z,26.88
2023-04-25T02:50:48.084Z,26.80
2023-04-25T02:51:48.094Z,26.91
2023-04-25T02:52:48.113Z,26.82
2023-04-25T02:53:48.250Z,26.88
2023-04-25T02:54:48.102Z,26.82
2023-04-25T02:55:48.111Z,26.83
2023-04-25T02:56:48.126Z,26.86
2023-04-25T02:57:48.136Z,26.82
2023-04-25T02:58:48.146Z,25.65
2023-04-25T02:59:48.165Z,25.35
2023-04-25T03:00:48.234Z,25.23
2023-04-25T03:01:48.178Z,25.29
2023-04-25T03:02:48.273Z,25.11
2023-04-25T03:03:48.285Z,24.72
2023-04-25T03:04:48.303Z,24.43
2023-04-25T03:05:48.223Z,24.41
2023-04-25T03:06:48.252Z,24.16
2023-04-25T03:07:48.260Z,24.13
2023-04-25T03:08:48.290Z,24.11
2023-04-25T03:09:48.287Z,24.10
2023-04-25T03:10:48.302Z,23.78
2023-04-25T03:11:48.335Z,23.73
2023-04-25T03:12:48.413Z,23.67
2023-04-25T03:13:48.747Z,23.65
2023-04-25T03:14:48.567Z,23.72
2023-04-25T03:15:48.651Z,23.45
2023-04-25T03:16:48.792Z,23.43
2023-04-25T03:17:48.881Z,23.53
2023-04-25T03:18:48.924Z,23.46
2023-04-25T03:19:49.045Z,23.32
2023-04-25T03:20:49.104Z,23.22
2023-04-25T03:21:49.199Z,23.21
2023-04-25T03:22:49.287Z,23.15
2023-04-25T03:23:49.599Z,23.15
2023-04-25T03:24:49.451Z,23.18
2023-04-25T03:25:49.554Z,23.20
2023-04-25T03:26:49.628Z,23.01
2023-04-25T03:27:49.721Z,23.09
2023-04-25T03:28:49.811Z,23.05
2023-04-25T03:29:49.888Z,23.05
2023-04-25T03:30:49.966Z,22.83
2023-04-25T03:31:50.053Z,22.92
2023-04-25T03:32:50.148Z,22.84
2023-04-25T03:33:50.429Z,22.76
2023-04-25T03:34:50.286Z,22.76
2023-04-25T03:35:50.358Z,22.85
2023-04-25T03:36:50.426Z,22.77
2023-04-25T03:37:50.506Z,22.77
2023-04-25T03:38:50.592Z,22.72
2023-04-25T03:39:50.676Z,22.72
2023-04-25T03:40:50.763Z,22.69
2023-04-25T03:41:50.860Z,22.78
2023-04-25T03:42:50.921Z,22.72
2023-04-25T03:43:51.190Z,22.67
2023-04-25T03:44:51.075Z,22.68
2023-04-25T03:45:51.162Z,22.64
2023-04-25T03:46:51.178Z,22.64
2023-04-25T03:47:51.275Z,22.64
2023-04-25T03:48:51.302Z,22.56
2023-04-25T03:49:51.342Z,22.59
2023-04-25T03:50:51.414Z,22.67
2023-04-25T03:51:51.472Z,22.51
2023-04-25T03:52:51.507Z,22.65
2023-04-25T03:53:51.730Z,22.55
2023-04-25T03:54:51.592Z,22.52
2023-04-25T03:55:51.659Z,22.65
2023-04-25T03:56:51.717Z,22.56
2023-04-25T03:57:51.734Z,22.54
2023-04-25T03:58:51.794Z,22.60
2023-04-25T03:59:51.831Z,22.55
2023-04-25T04:00:51.904Z,22.41
2023-04-25T04:01:51.925Z,22.55
2023-04-25T04:02:52.013Z,22.53
2023-04-25T04:03:52.356Z,22.59
2023-04-25T04:04:52.241Z,22.71
2023-04-25T04:05:52.197Z,22.56
2023-04-25T04:06:52.108Z,22.65
2023-04-25T04:07:52.144Z,22.72
2023-04-25T04:08:52.183Z,22.64
2023-04-25T04:09:52.227Z,22.58
2023-04-25T04:10:52.260Z,22.73
2023-04-25T04:11:52.314Z,22.59
2023-04-25T04:12:52.358Z,22.58
2023-04-25T04:13:52.748Z,22.58
2023-04-25T04:14:52.430Z,22.58
2023-04-25T04:15:52.469Z,22.67
2023-04-25T04:16:52.504Z,22.64
2023-04-25T04:17:52.602Z,22.64
2023-04-25T04:18:52.588Z,22.64
2023-04-25T04:19:52.627Z,22.69
2023-04-25T04:20:52.653Z,22.65
2023-04-25T04:21:52.715Z,22.59
2023-04-25T04:22:52.766Z,22.67
2023-04-25T04:23:52.808Z,22.67
2023-04-25T04:24:52.822Z,22.70
2023-04-25T04:25:52.824Z,22.73
2023-04-25T04:26:52.868Z,22.74
2023-04-25T04:27:52.888Z,22.71
2023-04-25T04:28:52.954Z,22.77
2023-04-25T04:29:52.953Z,22.72
2023-04-25T04:30:52.993Z,22.65
2023-04-25T04:31:53.073Z,22.74
2023-04-25T04:32:53.176Z,22.79
2023-04-25T04:33:53.378Z,22.77
2023-04-25T04:34:53.142Z,22.74
2023-04-25T04:35:53.176Z,22.79
2023-04-25T04:36:53.219Z,22.76
2023-04-25T04:37:53.284Z,22.80
2023-04-25T04:38:53.527Z,22.81
2023-04-25T04:39:53.444Z,22.89
2023-04-25T04:40:53.365Z,22.87
2023-04-25T04:41:53.398Z,22.88
2023-04-25T04:42:53.426Z,22.74
2023-04-25T04:43:53.466Z,22.83
2023-04-25T04:44:53.506Z,22.87
2023-04-25T04:45:53.540Z,22.83
2023-04-25T04:46:53.653Z,22.87
2023-04-25T04:47:53.635Z,22.87
2023-04-25T04:48:53.634Z,22.90
2023-04-25T04:49:53.665Z,22.85
2023-04-25T04:50:53.734Z,22.87
2023-04-25T04:51:53.743Z,22.88
2023-04-25T04:52:53.788Z,22.91
2023-04-25T04:53:54.082Z,22.86
2023-04-25T04:54:53.858Z,22.86
2023-04-25T04:55:53.889Z,22.92
2023-04-25T04:56:53.942Z,22.89
2023-04-25T04:57:53.976Z,22.92
2023-04-25T04:58:54.036Z,22.89
2023-04-25T04:59:54.114Z,22.99
2023-04-25T05:00:54.214Z,22.97
2023-04-25T05:01:54.215Z,22.94
2023-04-25T05:02:54.422Z,22.92
2023-04-25T05:03:54.991Z,22.97
2023-04-25T05:04:54.395Z,22.95
2023-04-25T05:05:54.387Z,22.97
2023-04-25T05:06:54.439Z,23.00
2023-04-25T05:07:54.468Z,22.99
2023-04-25T05:08:54.510Z,23.00
2023-04-25T05:09:54.544Z,22.98
2023-04-25T05:10:54.579Z,23.01
2023-04-25T05:11:54.616Z,23.01
2023-04-25T05:12:54.672Z,23.05
2023-04-25T05:13:54.695Z,23.01
2023-04-25T05:14:54.749Z,23.06
2023-04-25T05:15:54.772Z,22.99
2023-04-25T05:16:54.952Z,23.05
2023-04-25T05:17:54.952Z,23.04
2023-04-25T05:18:54.892Z,23.01
2023-04-25T05:19:54.960Z,22.95
2023-04-25T05:20:55.032Z,23.11
2023-04-25T05:21:55.104Z,23.06
2023-04-25T05:22:55.174Z,23.03
2023-04-25T05:23:55.206Z,23.03
2023-04-25T05:24:56.193Z,23.15
2023-04-25T05:25:55.312Z,23.04
2023-04-25T05:26:55.355Z,23.14
2023-04-25T05:27:55.382Z,23.09
2023-04-25T05:28:55.409Z,23.17
2023-04-25T05:29:55.450Z,23.34
2023-04-25T05:30:55.484Z,23.52
2023-04-25T05:31:55.609Z,23.64
2023-04-25T05:32:55.620Z,23.78
2023-04-25T05:33:55.600Z,24.06
2023-04-25T05:34:55.650Z,24.23
2023-04-25T05:35:55.985Z,24.62
2023-04-25T05:38:14.865Z,25.02
2023-04-25T05:39:14.775Z,25.15
2023-04-25T05:40:14.801Z,25.44
2023-04-25T05:41:14.758Z,25.53
2023-04-25T05:42:14.757Z,25.55
2023-04-25T05:43:14.758Z,25.75
2023-04-25T05:44:14.745Z,25.82
2023-04-25T05:45:14.725Z,25.86
2023-04-25T05:46:14.717Z,25.89
2023-04-25T05:47:14.691Z,25.97
2023-04-25T05:48:14.732Z,26.12
2023-04-25T05:49:14.653Z,26.24
2023-04-25T05:50:14.639Z,26.30
2023-04-25T05:51:14.612Z,26.32
2023-04-25T05:52:14.588Z,22.99
2023-04-25T05:53:14.571Z,22.58
2023-04-25T05:54:14.548Z,22.30
2023-04-25T05:55:14.547Z,22.57
2023-04-25T05:56:14.560Z,22.77
2023-04-25T05:57:14.551Z,23.15
2023-04-25T05:58:14.558Z,23.19
2023-04-25T05:59:14.559Z,23.18
2023-04-25T06:00:14.590Z,23.71
2023-04-25T06:01:14.564Z,24.15
2023-04-25T06:02:14.654Z,24.56
2023-04-25T06:03:15.901Z,24.65
2023-04-25T06:04:14.845Z,24.82
2023-04-25T06:05:14.689Z,25.27
2023-04-25T06:06:14.570Z,25.27
2023-04-25T06:07:14.574Z,25.56
2023-04-25T06:08:14.584Z,25.63
2023-04-25T06:09:14.664Z,25.66
2023-04-25T06:10:14.545Z,26.02
2023-04-25T06:11:14.543Z,26.03
2023-04-25T06:12:14.533Z,25.91
2023-04-25T06:13:14.521Z,26.04
2023-04-25T06:14:14.510Z,26.08
2023-04-25T06:15:27.216Z,26.07
2023-04-25T06:16:15.511Z,26.14
2023-04-25T06:17:14.465Z,26.25
2023-04-25T06:18:14.454Z,26.12
2023-04-25T06:19:14.420Z,26.02
2023-04-25T06:20:14.406Z,26.01
2023-04-25T06:21:14.388Z,26.00
2023-04-25T06:22:14.376Z,26.00
2023-04-25T06:23:14.356Z,25.95
2023-04-25T06:24:14.344Z,25.95
2023-04-25T06:25:14.330Z,25.92
2023-04-25T06:26:14.307Z,25.84
2023-04-25T06:27:16.455Z,25.89
2023-04-25T06:28:14.536Z,25.89
2023-04-25T06:29:14.535Z,25.81
2023-04-25T06:30:14.579Z,25.83
2023-04-25T06:31:14.641Z,25.73
2023-04-25T06:32:14.585Z,25.78
2023-04-25T06:33:14.621Z,25.70
2023-04-25T06:34:14.566Z,25.79
2023-04-25T06:35:14.547Z,25.71
2023-04-25T06:36:14.573Z,25.76
2023-04-25T06:37:14.520Z,25.72
2023-04-25T06:38:14.520Z,25.70
2023-04-25T06:39:14.510Z,25.76
2023-04-25T06:40:14.490Z,25.83
2023-04-25T06:41:14.473Z,25.89
2023-04-25T06:42:14.468Z,25.86
2023-04-25T06:43:14.442Z,24.55
2023-04-25T06:44:14.429Z,23.46
2023-04-25T06:45:14.409Z,23.07
2023-04-25T06:46:14.436Z,22.60
2023-04-25T06:47:14.474Z,21.75
2023-04-25T06:48:14.386Z,21.64
2023-04-25T06:49:14.371Z,21.60
2023-04-25T06:50:14.351Z,21.73
2023-04-25T06:51:14.366Z,21.51
2023-04-25T06:52:14.366Z,21.69
2023-04-25T06:53:14.340Z,21.61
2023-04-25T06:54:14.346Z,21.72
2023-04-25T06:55:14.352Z,21.62
2023-04-25T06:56:14.356Z,21.62
2023-04-25T06:57:14.328Z,21.63
2023-04-25T06:58:14.353Z,21.55
2023-04-25T06:59:14.694Z,21.69
2023-04-25T07:00:14.420Z,21.67
2023-04-25T07:01:14.434Z,21.86
2023-04-25T07:02:14.470Z,21.94
2023-04-25T07:03:14.554Z,22.09
2023-04-25T07:04:14.679Z,22.11
2023-04-25T07:05:14.509Z,22.46
2023-04-25T07:06:14.589Z,22.33
2023-04-25T07:07:14.644Z,22.19
2023-04-25T07:08:14.716Z,22.36
2023-04-25T07:09:14.762Z,22.55
2023-04-25T07:10:14.844Z,22.41
2023-04-25T07:11:14.892Z,22.38
2023-04-25T07:12:14.952Z,22.33
2023-04-25T07:13:15.019Z,22.10
2023-04-25T07:14:15.069Z,22.21
2023-04-25T07:15:15.125Z,22.37
2023-04-25T07:16:15.201Z,22.42
2023-04-25T07:17:15.251Z,22.35
2023-04-25T07:18:15.277Z,22.15
2023-04-25T07:19:15.314Z,22.34
2023-04-25T07:20:15.362Z,22.45
2023-04-25T07:21:15.418Z,22.49
2023-04-25T07:22:15.466Z,22.39
2023-04-25T07:23:15.519Z,22.69
2023-04-25T07:24:15.584Z,22.63
2023-04-25T07:25:15.619Z,22.54
2023-04-25T07:26:15.702Z,22.63
2023-04-25T07:27:15.771Z,22.63
2023-04-25T07:28:16.927Z,22.63
2023-04-25T07:29:15.838Z,22.68
2023-04-25T07:30:15.885Z,22.56
2023-04-25T07:31:15.928Z,22.49
2023-04-25T07:32:16.102Z,22.42
2023-04-25T07:33:16.087Z,22.42
2023-04-25T07:34:16.088Z,22.49
2023-04-25T07:35:16.257Z,22.58
2023-04-25T07:36:16.213Z,22.63
2023-04-25T07:37:16.302Z,23.07
2023-04-25T07:38:16.305Z,23.35
2023-04-25T07:39:16.367Z,23.42
2023-04-25T07:40:16.404Z,23.75
2023-04-25T07:41:16.445Z,23.92
2023-04-25T07:42:16.492Z,24.04
2023-04-25T07:43:16.544Z,24.23
2023-04-25T07:44:16.557Z,24.21
2023-04-25T07:45:16.583Z,24.30
2023-04-25T07:46:16.647Z,24.27
2023-04-25T07:47:16.627Z,24.36
2023-04-25T07:48:16.623Z,24.39
2023-04-25T07:49:16.627Z,24.46
2023-04-25T07:50:16.633Z,24.45
2023-04-25T07:51:16.626Z,24.52
2023-04-25T07:52:16.649Z,24.49
2023-04-25T07:53:16.636Z,24.57
2023-04-25T07:54:16.665Z,24.56
2023-04-25T07:55:16.626Z,24.58
2023-04-25T07:56:16.635Z,24.52
2023-04-25T07:57:16.626Z,24.66
2023-04-25T07:58:16.621Z,24.66
2023-04-25T07:59:16.605Z,24.65
2023-04-25T08:00:16.586Z,24.63
2023-04-25T08:01:16.565Z,24.63
2023-04-25T08:02:16.658Z,24.65
2023-04-25T08:03:16.737Z,24.64
2023-04-25T08:04:16.588Z,24.57
2023-04-25T08:05:17.805Z,24.59
2023-04-25T08:06:16.676Z,24.64
2023-04-25T08:07:16.413Z,24.58
2023-04-25T08:08:16.406Z,24.66
2023-04-25T08:09:16.384Z,24.60
2023-04-25T08:10:16.360Z,24.61
2023-04-25T08:11:16.317Z,24.57
2023-04-25T08:12:16.302Z,24.54
2023-04-25T08:13:16.279Z,24.51
2023-04-25T08:14:16.267Z,24.46
2023-04-25T08:15:16.213Z,24.48
2023-04-25T08:16:16.275Z,24.42
2023-04-25T08:17:16.169Z,24.41
2023-04-25T08:18:17.708Z,24.40
2023-04-25T08:19:16.101Z,24.40
2023-04-25T08:20:16.079Z,24.39
2023-04-25T08:21:16.060Z,24.40
2023-04-25T08:22:16.022Z,24.40
2023-04-25T08:23:16.006Z,24.38
2023-04-25T08:24:15.973Z,24.33
2023-04-25T08:25:15.966Z,24.34
2023-04-25T08:26:15.970Z,24.28
2023-04-25T08:27:15.980Z,24.27
2023-04-25T08:28:16.010Z,24.19
2023-04-25T08:29:16.040Z,24.18
2023-04-25T08:30:16.183Z,24.23
2023-04-25T08:31:16.163Z,24.11
2023-04-25T08:32:16.164Z,24.07
2023-04-25T08:33:16.242Z,23.78
2023-04-25T08:34:16.255Z,23.72
2023-04-25T08:35:16.411Z,23.78
2023-04-25T08:36:24.504Z,23.65
2023-04-25T08:37:17.341Z,23.52
2023-04-25T08:38:16.250Z,23.43
2023-04-25T08:39:16.227Z,23.37
2023-04-25T08:40:16.179Z,23.32
2023-04-25T08:41:16.166Z,23.26
2023-04-25T08:42:16.143Z,23.34
2023-04-25T08:43:16.166Z,23.26
2023-04-25T08:44:16.085Z,23.21
2023-04-25T08:45:16.045Z,23.21
2023-04-25T08:46:16.084Z,23.26
2023-04-25T08:47:16.073Z,23.22
2023-04-25T08:48:16.123Z,23.19
2023-04-25T08:49:16.180Z,23.62
2023-04-25T08:50:16.197Z,23.80
2023-04-25T08:51:16.217Z,23.80
2023-04-25T08:52:16.254Z,23.73
2023-04-25T08:53:16.279Z,23.77
2023-04-25T08:54:33.638Z,23.74
2023-04-25T08:55:17.271Z,23.77
2023-04-25T08:56:16.266Z,23.70
2023-04-25T08:57:16.222Z,23.53
2023-04-25T08:58:16.187Z,23.53
2023-04-25T08:59:16.186Z,23.53
2023-04-25T09:00:16.123Z,23.41
2023-04-25T09:01:16.116Z,23.33
2023-04-25T09:02:16.104Z,23.46
2023-04-25T09:03:16.214Z,23.46
2023-04-25T09:04:16.208Z,23.37
2023-04-25T09:05:15.983Z,23.37
2023-04-25T09:06:15.960Z,23.32
2023-04-25T09:07:15.927Z,23.14
2023-04-25T09:08:15.905Z,23.13
2023-04-25T09:09:15.896Z,23.01
2023-04-25T09:10:15.844Z,22.97
2023-04-25T09:11:15.907Z,22.94
2023-04-25T09:12:15.781Z,22.84
2023-04-25T09:13:15.791Z,22.83
2023-04-25T09:14:15.758Z,22.78
2023-04-25T09:16:15.717Z,22.73
2023-04-25T09:17:15.657Z,22.72
2023-04-25T09:18:15.621Z,22.59
2023-04-25T09:19:15.581Z,22.59
2023-04-25T09:20:15.574Z,22.59
2023-04-25T09:21:15.584Z,22.34
2023-04-25T09:22:15.510Z,22.40
2023-04-25T09:23:15.493Z,22.46
2023-04-25T09:24:15.478Z,22.42
2023-04-25T09:25:15.489Z,22.37
2023-04-25T09:26:15.412Z,22.39
2023-04-25T09:27:15.408Z,22.33
2023-04-25T09:28:15.362Z,22.37
2023-04-25T09:29:15.325Z,22.34
2023-04-25T09:30:15.296Z,22.31
2023-04-25T09:31:15.286Z,22.36
2023-04-25T09:32:15.290Z,22.39
2023-04-25T09:33:15.287Z,22.37
2023-04-25T09:34:15.188Z,22.41
2023-04-25T09:35:15.159Z,22.45
2023-04-25T09:36:15.209Z,22.43
2023-04-25T09:37:15.088Z,22.55
2023-04-25T09:38:15.060Z,22.49
2023-04-25T09:39:15.029Z,22.60
2023-04-25T09:40:14.990Z,22.62
2023-04-25T09:41:14.960Z,22.60
2023-04-25T09:42:14.952Z,22.60
2023-04-25T09:43:14.919Z,22.76
2023-04-25T09:44:14.862Z,22.92
2023-04-25T09:45:14.843Z,23.05
2023-04-25T09:46:14.841Z,23.30
2023-04-25T09:47:14.792Z,23.47
2023-04-25T09:48:14.783Z,23.46
2023-04-25T09:49:14.742Z,23.53
2023-04-25T09:50:14.707Z,23.79
2023-04-25T09:51:14.711Z,23.93
2023-04-25T09:52:14.645Z,23.84
2023-04-25T09:53:14.615Z,23.97
2023-04-25T09:54:14.592Z,23.82
2023-04-25T09:55:14.545Z,23.97
2023-04-25T09:56:14.519Z,24.03
2023-04-25T09:57:14.483Z,24.05
2023-04-25T09:58:14.439Z,24.06
2023-04-25T09:59:14.439Z,24.07
2023-04-25T10:00:14.394Z,24.02
2023-04-25T10:01:14.371Z,24.06
2023-04-25T10:02:14.366Z,24.06
2023-04-25T10:03:14.321Z,24.04
2023-04-25T10:04:14.390Z,23.86
2023-04-25T10:05:14.250Z,23.91
2023-04-25T10:06:14.183Z,23.96
2023-04-25T10:07:14.154Z,23.87
2023-04-25T10:08:14.102Z,23.80
2023-04-25T10:09:14.094Z,23.72
2023-04-25T10:10:14.040Z,23.67
2023-04-25T10:11:13.997Z,23.74
2023-04-25T10:12:14.013Z,23.80
2023-04-25T10:13:13.932Z,23.77
2023-04-25T10:14:13.900Z,23.61
2023-04-25T10:15:13.882Z,23.68
2023-04-25T10:16:13.850Z,23.58
2023-04-25T10:17:13.766Z,23.49
2023-04-25T10:18:13.776Z,23.47
2023-04-25T10:19:13.697Z,23.49
2023-04-25T10:20:13.639Z,23.35
2023-04-25T10:21:13.604Z,23.38
2023-04-25T10:22:13.571Z,23.43
2023-04-25T10:23:13.531Z,23.33
2023-04-25T10:24:13.508Z,23.49
2023-04-25T10:25:13.466Z,23.52
2023-04-25T10:26:13.422Z,23.47
2023-04-25T10:27:13.385Z,23.43
2023-04-25T10:28:13.358Z,23.28
2023-04-25T10:29:13.343Z,23.25
2023-04-25T10:30:13.281Z,23.28
2023-04-25T10:31:13.487Z,23.36
2023-04-25T10:32:13.580Z,23.39
2023-04-25T10:33:13.199Z,23.36
2023-04-25T10:34:13.160Z,23.40
2023-04-25T10:35:13.120Z,23.35
2023-04-25T10:36:13.087Z,23.36
2023-04-25T10:37:13.059Z,22.92
2023-04-25T10:38:13.022Z,22.51
2023-04-25T10:39:12.992Z,22.67
2023-04-25T10:40:12.942Z,22.51
2023-04-25T10:41:12.913Z,22.58
2023-04-25T10:42:12.882Z,22.71
2023-04-25T10:43:15.081Z,22.56
2023-04-25T10:44:12.885Z,22.42
2023-04-25T10:45:12.889Z,22.42
2023-04-25T10:46:12.978Z,22.38
2023-04-25T10:47:12.935Z,22.32
2023-04-25T10:48:13.005Z,22.55
2023-04-25T10:49:15.039Z,22.46
2023-04-25T10:50:12.841Z,22.40
2023-04-25T10:51:12.790Z,22.17
2023-04-25T10:52:12.816Z,22.30
2023-04-25T10:53:12.712Z,22.11
2023-04-25T10:54:12.694Z,22.01
2023-04-25T10:55:12.664Z,22.23
2023-04-25T10:56:14.386Z,22.18
2023-04-25T10:57:12.604Z,22.32
2023-04-25T10:58:12.576Z,22.34
2023-04-25T10:59:12.555Z,22.24
2023-04-25T11:00:12.531Z,22.22
2023-04-25T11:01:12.509Z,22.17
2023-04-25T11:02:12.797Z,22.17
2023-04-25T11:03:12.616Z,22.18
2023-04-25T11:04:12.585Z,22.24
2023-04-25T11:05:12.390Z,22.24
2023-04-25T11:06:12.353Z,22.20
2023-04-25T11:07:12.345Z,22.26
2023-04-25T11:08:12.323Z,22.18
2023-04-25T11:09:12.284Z,21.87
2023-04-25T11:10:12.309Z,22.10
2023-04-25T11:11:12.223Z,22.23
2023-04-25T11:12:12.261Z,22.34
2023-04-25T11:13:12.183Z,22.36
2023-04-25T11:14:12.153Z,22.38
2023-04-25T11:15:12.120Z,21.78
2023-04-25T11:16:12.770Z,21.95
2023-04-25T11:17:12.092Z,22.14
2023-04-25T11:18:12.147Z,21.95
2023-04-25T11:19:12.112Z,21.74
2023-04-25T11:20:12.167Z,21.90
2023-04-25T11:21:12.167Z,21.38
2023-04-25T11:22:12.290Z,21.20
2023-04-25T11:23:12.245Z,21.49
2023-04-25T11:24:12.267Z,21.76
2023-04-25T11:25:12.316Z,21.88
2023-04-25T11:26:12.319Z,22.01
2023-04-25T11:27:12.359Z,21.98
2023-04-25T11:28:12.382Z,22.01
2023-04-25T11:29:12.389Z,21.98
2023-04-25T11:30:12.442Z,21.87
2023-04-25T11:31:12.435Z,21.81
2023-04-25T11:32:12.489Z,21.78
2023-04-25T11:33:12.488Z,21.57
2023-04-25T11:34:12.465Z,21.49
2023-04-25T11:35:12.538Z,21.43
2023-04-25T11:36:12.530Z,21.37
2023-04-25T11:37:12.534Z,21.38
2023-04-25T11:38:12.535Z,21.47
2023-04-25T11:39:12.576Z,21.16
2023-04-25T11:40:12.787Z,21.13
2023-04-25T11:41:12.584Z,21.27
2023-04-25T11:42:13.855Z,21.29
2023-04-25T11:43:12.613Z,21.08
2023-04-25T11:44:12.622Z,20.93
2023-04-25T11:45:12.649Z,21.01
2023-04-25T11:46:12.679Z,21.03
2023-04-25T11:47:12.663Z,21.09
2023-04-25T11:48:12.794Z,20.80
2023-04-25T11:49:12.687Z,20.72
2023-04-25T11:50:12.822Z,20.69
2023-04-25T11:51:12.726Z,20.63
2023-04-25T11:52:12.731Z,20.63
2023-04-25T11:53:12.700Z,20.69
2023-04-25T11:54:12.738Z,20.96
2023-04-25T11:55:12.635Z,21.04
2023-04-25T11:56:12.604Z,21.13
2023-04-25T11:57:12.563Z,21.21
2023-04-25T11:58:12.534Z,21.13
2023-04-25T11:59:12.913Z,21.15
2023-04-25T12:00:13.531Z,21.04
2023-04-25T12:01:12.445Z,21.07
2023-04-25T12:02:12.505Z,21.07
2023-04-25T12:03:12.457Z,21.03
2023-04-25T12:04:12.470Z,20.97
2023-04-25T12:05:30.328Z,21.05
2023-04-25T12:06:13.441Z,21.11
2023-04-25T12:07:12.252Z,21.17
2023-04-25T12:08:12.209Z,21.52
2023-04-25T12:09:12.204Z,21.47
2023-04-25T12:10:12.145Z,21.44
2023-04-25T12:11:12.112Z,21.28
2023-04-25T12:12:12.102Z,21.47
2023-04-25T12:13:12.054Z,21.49
2023-04-25T12:14:12.026Z,21.47
2023-04-25T12:15:12.017Z,21.47
2023-04-25T12:16:12.017Z,21.44
2023-04-25T12:17:11.947Z,21.42
2023-04-25T12:18:11.942Z,21.41
2023-04-25T12:19:11.888Z,21.44
2023-04-25T12:20:11.925Z,21.52
2023-04-25T12:21:11.934Z,21.44
2023-04-25T12:22:11.899Z,21.44
2023-04-25T12:23:11.891Z,21.42
2023-04-25T12:24:11.856Z,21.50
2023-04-25T12:25:11.851Z,21.44
2023-04-25T12:26:11.796Z,21.47
2023-04-25T12:27:11.772Z,21.45
2023-04-25T12:28:11.764Z,21.46
2023-04-25T12:29:11.728Z,21.47
2023-04-25T12:30:11.725Z,21.52
2023-04-25T12:31:11.697Z,21.46
2023-04-25T12:32:11.648Z,21.25
2023-04-25T12:33:11.639Z,21.36
2023-04-25T12:34:11.582Z,21.39
2023-04-25T12:35:11.558Z,21.26
2023-04-25T12:36:11.526Z,21.33
2023-04-25T12:37:11.645Z,21.30
2023-04-25T12:38:11.451Z,21.38
2023-04-25T12:39:11.451Z,21.25
2023-04-25T12:40:11.406Z,21.28
2023-04-25T12:41:11.360Z,21.26
2023-04-25T12:42:11.326Z,21.19
2023-04-25T12:43:11.305Z,21.12
2023-04-25T12:44:11.268Z,21.29
2023-04-25T12:45:11.252Z,21.20
2023-04-25T12:46:11.243Z,21.10
2023-04-25T12:47:11.215Z,21.14
2023-04-25T12:48:11.188Z,21.06
2023-04-25T12:49:18.618Z,21.03
2023-04-25T12:50:12.167Z,21.05
2023-04-25T12:51:11.062Z,21.03
2023-04-25T12:52:11.039Z,21.03
2023-04-25T12:53:11.029Z,20.97
2023-04-25T12:54:10.960Z,20.99
2023-04-25T12:55:10.940Z,20.93